sensor_id;sensor_type;location;lat;lon;timestamp;P1;durP1;ratioP1;P2;durP2;ratioP2
18280;SDS011;9266;51.132;17.062;2022-11-11T00:00:35;23.53;;;15.37;;
18280;SDS011;9266;51.132;17.062;2022-11-11T00:03:03;23.37;;;15.73;;
18280;SDS011;9266;51.132;17.062;2022-11-11T00:05:31;26.47;;;16.07;;
18280;SDS011;9266;51.132;17.062;2022-11-11T00:08:00;26.53;;;16.60;;
18280;SDS011;9266;51.132;17.062;2022-11-11T00:10:28;24.23;;;15.50;;
18280;SDS011;9266;51.132;17.062;2022-11-11T00:12:57;27.13;;;16.07;;
18280;SDS011;9266;51.132;17.062;2022-11-11T00:15:24;21.57;;;15.57;;
18280;SDS011;9266;51.132;17.062;2022-11-11T00:17:52;25.40;;;16.40;;
18280;SDS011;9266;51.132;17.062;2022-11-11T00:20:42;25.37;;;15.57;;
18280;SDS011;9266;51.132;17.062;2022-11-11T00:23:28;26.23;;;16.33;;
18280;SDS011;9266;51.132;17.062;2022-11-11T00:26:13;27.10;;;16.50;;
18280;SDS011;9266;51.132;17.062;2022-11-11T00:28:41;30.10;;;17.23;;
18280;SDS011;9266;51.132;17.062;2022-11-11T00:31:09;22.83;;;14.37;;
18280;SDS011;9266;51.132;17.062;2022-11-11T00:33:37;24.40;;;14.73;;
18280;SDS011;9266;51.132;17.062;2022-11-11T00:36:05;21.53;;;14.27;;
18280;SDS011;9266;51.132;17.062;2022-11-11T00:38:32;21.47;;;14.80;;
18280;SDS011;9266;51.132;17.062;2022-11-11T00:41:13;23.43;;;14.73;;
18280;SDS011;9266;51.132;17.062;2022-11-11T00:43:40;23.90;;;14.20;;
18280;SDS011;9266;51.132;17.062;2022-11-11T00:46:07;18.10;;;13.77;;
18280;SDS011;9266;51.132;17.062;2022-11-11T00:48:52;21.33;;;13.93;;
18280;SDS011;9266;51.132;17.062;2022-11-11T00:51:37;21.13;;;14.60;;
18280;SDS011;9266;51.132;17.062;2022-11-11T00:54:06;21.77;;;14.73;;
18280;SDS011;9266;51.132;17.062;2022-11-11T00:56:34;21.93;;;13.83;;
18280;SDS011;9266;51.132;17.062;2022-11-11T00:59:02;20.33;;;14.10;;
18280;SDS011;9266;51.132;17.062;2022-11-11T01:01:29;19.57;;;13.60;;
18280;SDS011;9266;51.132;17.062;2022-11-11T01:03:57;55.40;;;26.93;;
18280;SDS011;9266;51.132;17.062;2022-11-11T01:06:24;19.03;;;12.83;;
18280;SDS011;9266;51.132;17.062;2022-11-11T01:08:52;20.90;;;12.97;;
18280;SDS011;9266;51.132;17.062;2022-11-11T01:11:22;19.67;;;12.60;;
18280;SDS011;9266;51.132;17.062;2022-11-11T01:13:49;19.13;;;12.73;;
18280;SDS011;9266;51.132;17.062;2022-11-11T01:16:17;17.73;;;12.27;;
18280;SDS011;9266;51.132;17.062;2022-11-11T01:18:45;18.70;;;13.13;;
18280;SDS011;9266;51.132;17.062;2022-11-11T01:21:12;21.23;;;12.03;;
18280;SDS011;9266;51.132;17.062;2022-11-11T01:23:40;20.50;;;12.87;;
18280;SDS011;9266;51.132;17.062;2022-11-11T01:26:10;16.00;;;10.67;;
18280;SDS011;9266;51.132;17.062;2022-11-11T01:28:40;19.93;;;12.60;;
18280;SDS011;9266;51.132;17.062;2022-11-11T01:31:08;19.53;;;11.73;;
18280;SDS011;9266;51.132;17.062;2022-11-11T01:33:36;20.70;;;11.47;;
18280;SDS011;9266;51.132;17.062;2022-11-11T01:36:04;18.67;;;11.37;;
18280;SDS011;9266;51.132;17.062;2022-11-11T01:38:31;22.00;;;11.97;;
18280;SDS011;9266;51.132;17.062;2022-11-11T01:40:59;19.37;;;12.00;;
18280;SDS011;9266;51.132;17.062;2022-11-11T01:43:47;15.97;;;11.53;;
18280;SDS011;9266;51.132;17.062;2022-11-11T01:46:20;21.00;;;12.03;;
18280;SDS011;9266;51.132;17.062;2022-11-11T01:48:50;20.43;;;11.13;;
18280;SDS011;9266;51.132;17.062;2022-11-11T01:51:37;20.83;;;12.53;;
18280;SDS011;9266;51.132;17.062;2022-11-11T01:54:06;20.90;;;11.70;;
18280;SDS011;9266;51.132;17.062;2022-11-11T01:56:34;15.63;;;12.00;;
18280;SDS011;9266;51.132;17.062;2022-11-11T01:59:04;18.47;;;10.97;;
18280;SDS011;9266;51.132;17.062;2022-11-11T02:01:32;16.73;;;11.23;;
18280;SDS011;9266;51.132;17.062;2022-11-11T02:04:00;15.90;;;11.30;;
18280;SDS011;9266;51.132;17.062;2022-11-11T02:06:48;21.63;;;12.97;;
18280;SDS011;9266;51.132;17.062;2022-11-11T02:09:16;17.10;;;12.13;;
18280;SDS011;9266;51.132;17.062;2022-11-11T02:11:44;21.73;;;14.90;;
18280;SDS011;9266;51.132;17.062;2022-11-11T02:14:30;24.77;;;15.47;;
18280;SDS011;9266;51.132;17.062;2022-11-11T02:17:01;23.00;;;17.83;;
18280;SDS011;9266;51.132;17.062;2022-11-11T02:19:30;21.50;;;15.07;;
18280;SDS011;9266;51.132;17.062;2022-11-11T02:22:00;25.37;;;16.20;;
18280;SDS011;9266;51.132;17.062;2022-11-11T02:24:30;21.97;;;15.13;;
18280;SDS011;9266;51.132;17.062;2022-11-11T02:26:58;19.10;;;14.70;;
18280;SDS011;9266;51.132;17.062;2022-11-11T02:29:27;23.20;;;14.33;;
18280;SDS011;9266;51.132;17.062;2022-11-11T02:31:55;21.53;;;14.77;;
18280;SDS011;9266;51.132;17.062;2022-11-11T02:34:27;17.53;;;13.10;;
18280;SDS011;9266;51.132;17.062;2022-11-11T02:36:54;23.43;;;14.57;;
18280;SDS011;9266;51.132;17.062;2022-11-11T02:39:22;18.87;;;12.33;;
18280;SDS011;9266;51.132;17.062;2022-11-11T02:41:51;21.17;;;12.37;;
18280;SDS011;9266;51.132;17.062;2022-11-11T02:44:25;20.63;;;11.80;;
18280;SDS011;9266;51.132;17.062;2022-11-11T02:46:52;15.00;;;11.20;;
18280;SDS011;9266;51.132;17.062;2022-11-11T02:49:19;15.53;;;11.40;;
18280;SDS011;9266;51.132;17.062;2022-11-11T02:51:47;17.77;;;11.70;;
18280;SDS011;9266;51.132;17.062;2022-11-11T02:54:14;16.80;;;11.53;;
18280;SDS011;9266;51.132;17.062;2022-11-11T02:56:41;15.50;;;11.77;;
18280;SDS011;9266;51.132;17.062;2022-11-11T02:59:27;19.80;;;11.50;;
18280;SDS011;9266;51.132;17.062;2022-11-11T03:01:55;15.97;;;11.00;;
18280;SDS011;9266;51.132;17.062;2022-11-11T03:04:22;17.00;;;11.87;;
18280;SDS011;9266;51.132;17.062;2022-11-11T03:06:49;16.40;;;11.10;;
18280;SDS011;9266;51.132;17.062;2022-11-11T03:09:16;17.73;;;12.37;;
18280;SDS011;9266;51.132;17.062;2022-11-11T03:11:43;17.90;;;11.53;;
18280;SDS011;9266;51.132;17.062;2022-11-11T03:14:11;19.00;;;10.83;;
18280;SDS011;9266;51.132;17.062;2022-11-11T03:16:39;18.33;;;11.43;;
18280;SDS011;9266;51.132;17.062;2022-11-11T03:19:24;20.87;;;12.90;;
18280;SDS011;9266;51.132;17.062;2022-11-11T03:21:51;19.47;;;11.67;;
18280;SDS011;9266;51.132;17.062;2022-11-11T03:24:19;20.13;;;11.83;;
18280;SDS011;9266;51.132;17.062;2022-11-11T03:26:46;25.53;;;12.40;;
18280;SDS011;9266;51.132;17.062;2022-11-11T03:29:13;19.33;;;12.03;;
18280;SDS011;9266;51.132;17.062;2022-11-11T03:31:41;20.10;;;11.97;;
18280;SDS011;9266;51.132;17.062;2022-11-11T03:34:08;17.90;;;11.13;;
18280;SDS011;9266;51.132;17.062;2022-11-11T03:36:45;18.67;;;11.97;;
18280;SDS011;9266;51.132;17.062;2022-11-11T03:39:30;21.20;;;12.10;;
18280;SDS011;9266;51.132;17.062;2022-11-11T03:41:57;18.03;;;11.27;;
18280;SDS011;9266;51.132;17.062;2022-11-11T03:44:24;19.40;;;12.60;;
18280;SDS011;9266;51.132;17.062;2022-11-11T03:46:54;16.67;;;11.33;;
18280;SDS011;9266;51.132;17.062;2022-11-11T03:49:21;18.73;;;11.87;;
18280;SDS011;9266;51.132;17.062;2022-11-11T03:51:48;19.53;;;12.27;;
18280;SDS011;9266;51.132;17.062;2022-11-11T03:54:16;16.23;;;10.97;;
18280;SDS011;9266;51.132;17.062;2022-11-11T03:56:43;20.27;;;11.60;;
18280;SDS011;9266;51.132;17.062;2022-11-11T03:59:10;15.27;;;11.40;;
18280;SDS011;9266;51.132;17.062;2022-11-11T04:01:37;21.47;;;12.23;;
18280;SDS011;9266;51.132;17.062;2022-11-11T04:04:38;17.10;;;11.30;;
18280;SDS011;9266;51.132;17.062;2022-11-11T04:07:23;18.40;;;11.60;;
18280;SDS011;9266;51.132;17.062;2022-11-11T04:10:07;17.23;;;10.83;;
18280;SDS011;9266;51.132;17.062;2022-11-11T04:12:50;19.83;;;11.80;;
18280;SDS011;9266;51.132;17.062;2022-11-11T04:15:36;21.67;;;13.40;;
18280;SDS011;9266;51.132;17.062;2022-11-11T04:18:21;21.10;;;13.50;;
18280;SDS011;9266;51.132;17.062;2022-11-11T04:21:10;21.53;;;14.00;;
18280;SDS011;9266;51.132;17.062;2022-11-11T04:23:55;24.27;;;16.00;;
18280;SDS011;9266;51.132;17.062;2022-11-11T04:26:22;27.60;;;19.20;;
18280;SDS011;9266;51.132;17.062;2022-11-11T04:28:48;31.60;;;21.13;;
18280;SDS011;9266;51.132;17.062;2022-11-11T04:31:33;32.17;;;22.23;;
18280;SDS011;9266;51.132;17.062;2022-11-11T04:34:00;30.90;;;22.83;;
18280;SDS011;9266;51.132;17.062;2022-11-11T04:36:28;25.73;;;17.77;;
18280;SDS011;9266;51.132;17.062;2022-11-11T04:38:55;26.47;;;19.17;;
18280;SDS011;9266;51.132;17.062;2022-11-11T04:41:40;27.67;;;19.53;;
18280;SDS011;9266;51.132;17.062;2022-11-11T04:44:07;32.67;;;20.10;;
18280;SDS011;9266;51.132;17.062;2022-11-11T04:47:00;31.60;;;20.53;;
18280;SDS011;9266;51.132;17.062;2022-11-11T04:49:27;27.43;;;18.87;;
18280;SDS011;9266;51.132;17.062;2022-11-11T04:51:56;28.67;;;19.80;;
18280;SDS011;9266;51.132;17.062;2022-11-11T04:54:40;29.97;;;19.50;;
18280;SDS011;9266;51.132;17.062;2022-11-11T04:57:21;27.50;;;18.17;;
18280;SDS011;9266;51.132;17.062;2022-11-11T04:59:48;28.47;;;16.67;;
18280;SDS011;9266;51.132;17.062;2022-11-11T05:02:15;25.07;;;17.13;;
18280;SDS011;9266;51.132;17.062;2022-11-11T05:05:15;26.17;;;16.20;;
18280;SDS011;9266;51.132;17.062;2022-11-11T05:07:43;22.33;;;13.87;;
18280;SDS011;9266;51.132;17.062;2022-11-11T05:10:28;26.90;;;15.60;;
18280;SDS011;9266;51.132;17.062;2022-11-11T05:12:55;26.63;;;16.57;;
18280;SDS011;9266;51.132;17.062;2022-11-11T05:15:43;23.90;;;16.10;;
18280;SDS011;9266;51.132;17.062;2022-11-11T05:18:28;22.10;;;15.63;;
18280;SDS011;9266;51.132;17.062;2022-11-11T05:21:13;25.60;;;15.53;;
18280;SDS011;9266;51.132;17.062;2022-11-11T05:23:49;22.60;;;15.60;;
18280;SDS011;9266;51.132;17.062;2022-11-11T05:26:34;20.23;;;14.43;;
18280;SDS011;9266;51.132;17.062;2022-11-11T05:29:01;20.90;;;13.40;;
18280;SDS011;9266;51.132;17.062;2022-11-11T05:31:29;24.63;;;13.87;;
18280;SDS011;9266;51.132;17.062;2022-11-11T05:33:56;23.93;;;14.67;;
18280;SDS011;9266;51.132;17.062;2022-11-11T05:36:23;24.27;;;14.67;;
18280;SDS011;9266;51.132;17.062;2022-11-11T05:38:52;21.33;;;14.83;;
18280;SDS011;9266;51.132;17.062;2022-11-11T05:41:19;21.10;;;14.90;;
18280;SDS011;9266;51.132;17.062;2022-11-11T05:43:46;21.97;;;14.50;;
18280;SDS011;9266;51.132;17.062;2022-11-11T05:46:13;21.93;;;14.50;;
18280;SDS011;9266;51.132;17.062;2022-11-11T05:48:41;24.03;;;14.73;;
18280;SDS011;9266;51.132;17.062;2022-11-11T05:51:22;21.47;;;14.13;;
18280;SDS011;9266;51.132;17.062;2022-11-11T05:53:54;19.00;;;13.17;;
18280;SDS011;9266;51.132;17.062;2022-11-11T05:56:22;26.93;;;14.33;;
18280;SDS011;9266;51.132;17.062;2022-11-11T05:58:49;24.20;;;14.73;;
18280;SDS011;9266;51.132;17.062;2022-11-11T06:01:17;18.23;;;13.20;;
18280;SDS011;9266;51.132;17.062;2022-11-11T06:03:44;25.00;;;13.40;;
18280;SDS011;9266;51.132;17.062;2022-11-11T06:06:11;20.83;;;12.60;;
18280;SDS011;9266;51.132;17.062;2022-11-11T06:08:39;20.47;;;12.07;;
18280;SDS011;9266;51.132;17.062;2022-11-11T06:11:07;21.77;;;12.80;;
18280;SDS011;9266;51.132;17.062;2022-11-11T06:13:35;20.00;;;12.60;;
18280;SDS011;9266;51.132;17.062;2022-11-11T06:16:02;21.50;;;13.30;;
18280;SDS011;9266;51.132;17.062;2022-11-11T06:18:30;19.10;;;12.77;;
18280;SDS011;9266;51.132;17.062;2022-11-11T06:20:57;22.43;;;13.07;;
18280;SDS011;9266;51.132;17.062;2022-11-11T06:23:25;19.73;;;13.00;;
18280;SDS011;9266;51.132;17.062;2022-11-11T06:25:54;20.23;;;12.30;;
18280;SDS011;9266;51.132;17.062;2022-11-11T06:28:42;16.77;;;11.97;;
18280;SDS011;9266;51.132;17.062;2022-11-11T06:31:11;20.20;;;11.97;;
18280;SDS011;9266;51.132;17.062;2022-11-11T06:33:39;17.60;;;12.77;;
18280;SDS011;9266;51.132;17.062;2022-11-11T06:36:06;17.50;;;12.20;;
18280;SDS011;9266;51.132;17.062;2022-11-11T06:38:34;18.83;;;11.97;;
18280;SDS011;9266;51.132;17.062;2022-11-11T06:41:01;18.87;;;12.83;;
18280;SDS011;9266;51.132;17.062;2022-11-11T06:43:28;20.27;;;12.77;;
18280;SDS011;9266;51.132;17.062;2022-11-11T06:45:57;17.20;;;11.20;;
18280;SDS011;9266;51.132;17.062;2022-11-11T06:48:25;19.17;;;11.60;;
18280;SDS011;9266;51.132;17.062;2022-11-11T06:50:52;19.60;;;11.13;;
18280;SDS011;9266;51.132;17.062;2022-11-11T06:53:20;17.53;;;11.70;;
18280;SDS011;9266;51.132;17.062;2022-11-11T06:55:50;17.10;;;11.47;;
18280;SDS011;9266;51.132;17.062;2022-11-11T06:58:18;19.03;;;12.47;;
18280;SDS011;9266;51.132;17.062;2022-11-11T07:00:50;18.27;;;10.27;;
18280;SDS011;9266;51.132;17.062;2022-11-11T07:03:20;16.10;;;11.27;;
18280;SDS011;9266;51.132;17.062;2022-11-11T07:05:47;18.00;;;11.87;;
18280;SDS011;9266;51.132;17.062;2022-11-11T07:08:16;19.40;;;10.50;;
18280;SDS011;9266;51.132;17.062;2022-11-11T07:10:43;17.40;;;10.43;;
18280;SDS011;9266;51.132;17.062;2022-11-11T07:13:11;18.30;;;11.40;;
18280;SDS011;9266;51.132;17.062;2022-11-11T07:15:39;18.67;;;10.77;;
18280;SDS011;9266;51.132;17.062;2022-11-11T07:18:06;16.10;;;10.33;;
18280;SDS011;9266;51.132;17.062;2022-11-11T07:20:35;17.27;;;11.23;;
18280;SDS011;9266;51.132;17.062;2022-11-11T07:23:03;14.37;;;10.23;;
18280;SDS011;9266;51.132;17.062;2022-11-11T07:25:30;17.43;;;11.37;;
18280;SDS011;9266;51.132;17.062;2022-11-11T07:27:58;22.13;;;12.30;;
18280;SDS011;9266;51.132;17.062;2022-11-11T07:30:25;18.03;;;11.03;;
18280;SDS011;9266;51.132;17.062;2022-11-11T07:32:53;20.77;;;11.47;;
18280;SDS011;9266;51.132;17.062;2022-11-11T07:35:21;18.80;;;11.10;;
18280;SDS011;9266;51.132;17.062;2022-11-11T07:37:50;18.70;;;12.07;;
18280;SDS011;9266;51.132;17.062;2022-11-11T07:40:17;16.10;;;10.67;;
18280;SDS011;9266;51.132;17.062;2022-11-11T07:42:46;15.50;;;11.27;;
18280;SDS011;9266;51.132;17.062;2022-11-11T07:45:13;17.27;;;10.80;;
18280;SDS011;9266;51.132;17.062;2022-11-11T07:47:44;16.80;;;10.60;;
18280;SDS011;9266;51.132;17.062;2022-11-11T07:50:11;17.47;;;11.33;;
18280;SDS011;9266;51.132;17.062;2022-11-11T07:52:38;16.47;;;10.57;;
18280;SDS011;9266;51.132;17.062;2022-11-11T07:55:07;20.07;;;11.73;;
18280;SDS011;9266;51.132;17.062;2022-11-11T07:57:34;16.70;;;11.53;;
18280;SDS011;9266;51.132;17.062;2022-11-11T08:00:02;20.20;;;11.63;;
18280;SDS011;9266;51.132;17.062;2022-11-11T08:02:30;15.03;;;11.27;;
18280;SDS011;9266;51.132;17.062;2022-11-11T08:04:57;16.73;;;11.80;;
18280;SDS011;9266;51.132;17.062;2022-11-11T08:07:24;16.97;;;10.83;;
18280;SDS011;9266;51.132;17.062;2022-11-11T08:09:52;16.27;;;11.33;;
18280;SDS011;9266;51.132;17.062;2022-11-11T08:12:20;15.53;;;10.27;;
18280;SDS011;9266;51.132;17.062;2022-11-11T08:15:05;14.73;;;10.17;;
18280;SDS011;9266;51.132;17.062;2022-11-11T08:17:35;19.30;;;9.97;;
18280;SDS011;9266;51.132;17.062;2022-11-11T08:20:03;17.80;;;11.70;;
18280;SDS011;9266;51.132;17.062;2022-11-11T08:22:34;15.03;;;10.87;;
18280;SDS011;9266;51.132;17.062;2022-11-11T08:25:01;16.23;;;12.03;;
18280;SDS011;9266;51.132;17.062;2022-11-11T08:27:30;14.40;;;11.07;;
18280;SDS011;9266;51.132;17.062;2022-11-11T08:29:57;18.20;;;10.83;;
18280;SDS011;9266;51.132;17.062;2022-11-11T08:32:24;20.03;;;10.47;;
18280;SDS011;9266;51.132;17.062;2022-11-11T08:34:52;16.63;;;10.90;;
18280;SDS011;9266;51.132;17.062;2022-11-11T08:37:19;14.90;;;10.33;;
18280;SDS011;9266;51.132;17.062;2022-11-11T08:39:46;16.40;;;10.93;;
18280;SDS011;9266;51.132;17.062;2022-11-11T08:42:13;16.80;;;10.97;;
18280;SDS011;9266;51.132;17.062;2022-11-11T08:44:42;16.07;;;10.97;;
18280;SDS011;9266;51.132;17.062;2022-11-11T08:47:09;16.63;;;11.20;;
18280;SDS011;9266;51.132;17.062;2022-11-11T08:49:36;18.63;;;12.47;;
18280;SDS011;9266;51.132;17.062;2022-11-11T08:52:04;15.67;;;11.43;;
18280;SDS011;9266;51.132;17.062;2022-11-11T08:54:31;17.60;;;11.13;;
18280;SDS011;9266;51.132;17.062;2022-11-11T08:56:59;14.63;;;9.77;;
18280;SDS011;9266;51.132;17.062;2022-11-11T08:59:26;16.80;;;9.63;;
18280;SDS011;9266;51.132;17.062;2022-11-11T09:01:54;15.60;;;10.37;;
18280;SDS011;9266;51.132;17.062;2022-11-11T09:04:21;14.27;;;9.37;;
18280;SDS011;9266;51.132;17.062;2022-11-11T09:06:48;18.67;;;9.50;;
18280;SDS011;9266;51.132;17.062;2022-11-11T09:09:16;12.00;;;9.10;;
18280;SDS011;9266;51.132;17.062;2022-11-11T09:11:43;15.27;;;9.83;;
18280;SDS011;9266;51.132;17.062;2022-11-11T09:14:10;15.13;;;10.00;;
18280;SDS011;9266;51.132;17.062;2022-11-11T09:16:37;16.13;;;9.83;;
18280;SDS011;9266;51.132;17.062;2022-11-11T09:19:06;13.67;;;10.57;;
18280;SDS011;9266;51.132;17.062;2022-11-11T09:21:33;17.43;;;10.67;;
18280;SDS011;9266;51.132;17.062;2022-11-11T09:24:00;20.50;;;14.40;;
18280;SDS011;9266;51.132;17.062;2022-11-11T09:26:27;14.83;;;10.40;;
18280;SDS011;9266;51.132;17.062;2022-11-11T09:28:55;12.90;;;8.83;;
18280;SDS011;9266;51.132;17.062;2022-11-11T09:31:22;16.40;;;9.50;;
18280;SDS011;9266;51.132;17.062;2022-11-11T09:33:50;14.70;;;8.97;;
18280;SDS011;9266;51.132;17.062;2022-11-11T09:36:18;28.73;;;12.43;;
18280;SDS011;9266;51.132;17.062;2022-11-11T09:38:46;12.73;;;9.27;;
18280;SDS011;9266;51.132;17.062;2022-11-11T09:41:20;13.20;;;8.73;;
18280;SDS011;9266;51.132;17.062;2022-11-11T09:43:52;13.87;;;9.10;;
18280;SDS011;9266;51.132;17.062;2022-11-11T09:46:27;10.83;;;8.57;;
18280;SDS011;9266;51.132;17.062;2022-11-11T09:49:02;16.87;;;9.57;;
18280;SDS011;9266;51.132;17.062;2022-11-11T09:51:39;11.50;;;7.83;;
18280;SDS011;9266;51.132;17.062;2022-11-11T09:54:09;13.23;;;8.57;;
18280;SDS011;9266;51.132;17.062;2022-11-11T09:56:38;13.83;;;8.47;;
18280;SDS011;9266;51.132;17.062;2022-11-11T09:59:06;12.50;;;8.73;;
18280;SDS011;9266;51.132;17.062;2022-11-11T10:01:36;13.10;;;8.17;;
18280;SDS011;9266;51.132;17.062;2022-11-11T10:04:07;12.63;;;8.07;;
18280;SDS011;9266;51.132;17.062;2022-11-11T10:06:40;11.83;;;8.47;;
18280;SDS011;9266;51.132;17.062;2022-11-11T10:09:10;15.60;;;9.30;;
18280;SDS011;9266;51.132;17.062;2022-11-11T10:11:46;13.90;;;8.50;;
18280;SDS011;9266;51.132;17.062;2022-11-11T10:14:15;11.67;;;8.20;;
18280;SDS011;9266;51.132;17.062;2022-11-11T10:16:44;12.13;;;7.80;;
18280;SDS011;9266;51.132;17.062;2022-11-11T10:19:18;14.43;;;8.23;;
18280;SDS011;9266;51.132;17.062;2022-11-11T10:21:52;10.40;;;7.40;;
18280;SDS011;9266;51.132;17.062;2022-11-11T10:24:21;12.87;;;8.47;;
18280;SDS011;9266;51.132;17.062;2022-11-11T10:26:52;10.83;;;7.13;;
18280;SDS011;9266;51.132;17.062;2022-11-11T10:29:20;13.27;;;7.60;;
18280;SDS011;9266;51.132;17.062;2022-11-11T10:31:49;11.73;;;7.60;;
18280;SDS011;9266;51.132;17.062;2022-11-11T10:34:18;11.63;;;7.33;;
18280;SDS011;9266;51.132;17.062;2022-11-11T10:36:47;12.97;;;8.13;;
18280;SDS011;9266;51.132;17.062;2022-11-11T10:39:17;12.97;;;7.70;;
18280;SDS011;9266;51.132;17.062;2022-11-11T10:41:47;12.33;;;7.33;;
18280;SDS011;9266;51.132;17.062;2022-11-11T10:44:19;12.50;;;7.57;;
18280;SDS011;9266;51.132;17.062;2022-11-11T10:46:50;12.90;;;7.60;;
18280;SDS011;9266;51.132;17.062;2022-11-11T10:49:19;11.30;;;6.97;;
18280;SDS011;9266;51.132;17.062;2022-11-11T10:51:49;11.27;;;6.77;;
18280;SDS011;9266;51.132;17.062;2022-11-11T10:54:19;12.50;;;7.87;;
18280;SDS011;9266;51.132;17.062;2022-11-11T10:56:49;12.73;;;8.20;;
18280;SDS011;9266;51.132;17.062;2022-11-11T10:59:18;9.63;;;7.13;;
18280;SDS011;9266;51.132;17.062;2022-11-11T11:01:48;12.77;;;7.50;;
18280;SDS011;9266;51.132;17.062;2022-11-11T11:04:19;11.40;;;7.23;;
18280;SDS011;9266;51.132;17.062;2022-11-11T11:06:48;11.17;;;7.53;;
18280;SDS011;9266;51.132;17.062;2022-11-11T11:09:20;10.53;;;6.97;;
18280;SDS011;9266;51.132;17.062;2022-11-11T11:11:49;14.47;;;7.47;;
18280;SDS011;9266;51.132;17.062;2022-11-11T11:14:18;12.63;;;8.40;;
18280;SDS011;9266;51.132;17.062;2022-11-11T11:16:47;11.33;;;7.90;;
18280;SDS011;9266;51.132;17.062;2022-11-11T11:19:16;12.40;;;8.30;;
18280;SDS011;9266;51.132;17.062;2022-11-11T11:21:46;11.37;;;7.87;;
18280;SDS011;9266;51.132;17.062;2022-11-11T11:24:19;14.83;;;7.43;;
18280;SDS011;9266;51.132;17.062;2022-11-11T11:26:47;8.97;;;6.70;;
18280;SDS011;9266;51.132;17.062;2022-11-11T11:29:22;8.67;;;6.60;;
18280;SDS011;9266;51.132;17.062;2022-11-11T11:31:50;11.90;;;6.60;;
18280;SDS011;9266;51.132;17.062;2022-11-11T11:34:18;11.93;;;7.03;;
18280;SDS011;9266;51.132;17.062;2022-11-11T11:36:56;9.50;;;6.83;;
18280;SDS011;9266;51.132;17.062;2022-11-11T11:39:33;9.00;;;6.67;;
18280;SDS011;9266;51.132;17.062;2022-11-11T11:42:00;9.67;;;6.77;;
18280;SDS011;9266;51.132;17.062;2022-11-11T11:44:28;10.33;;;6.90;;
18280;SDS011;9266;51.132;17.062;2022-11-11T11:46:59;11.03;;;6.17;;
18280;SDS011;9266;51.132;17.062;2022-11-11T11:49:32;7.77;;;6.17;;
18280;SDS011;9266;51.132;17.062;2022-11-11T11:52:04;11.00;;;6.50;;
18280;SDS011;9266;51.132;17.062;2022-11-11T11:54:48;9.73;;;6.10;;
18280;SDS011;9266;51.132;17.062;2022-11-11T11:57:19;11.77;;;6.90;;
18280;SDS011;9266;51.132;17.062;2022-11-11T11:59:51;9.73;;;7.00;;
18280;SDS011;9266;51.132;17.062;2022-11-11T12:02:28;13.53;;;6.40;;
18280;SDS011;9266;51.132;17.062;2022-11-11T12:05:10;13.13;;;6.70;;
18280;SDS011;9266;51.132;17.062;2022-11-11T12:07:51;9.63;;;6.33;;
18280;SDS011;9266;51.132;17.062;2022-11-11T12:10:26;14.53;;;6.53;;
18280;SDS011;9266;51.132;17.062;2022-11-11T12:12:57;10.80;;;6.53;;
18280;SDS011;9266;51.132;17.062;2022-11-11T12:15:29;12.00;;;6.67;;
18280;SDS011;9266;51.132;17.062;2022-11-11T12:18:01;10.53;;;5.97;;
18280;SDS011;9266;51.132;17.062;2022-11-11T12:20:35;10.73;;;6.00;;
18280;SDS011;9266;51.132;17.062;2022-11-11T12:23:09;8.93;;;5.87;;
18280;SDS011;9266;51.132;17.062;2022-11-11T12:25:45;12.43;;;7.03;;
18280;SDS011;9266;51.132;17.062;2022-11-11T12:28:19;9.73;;;5.93;;
18280;SDS011;9266;51.132;17.062;2022-11-11T12:30:50;9.77;;;6.77;;
18280;SDS011;9266;51.132;17.062;2022-11-11T12:33:37;10.83;;;5.60;;
18280;SDS011;9266;51.132;17.062;2022-11-11T12:36:10;10.10;;;5.80;;
18280;SDS011;9266;51.132;17.062;2022-11-11T12:38:45;10.67;;;5.57;;
18280;SDS011;9266;51.132;17.062;2022-11-11T12:41:18;10.27;;;6.20;;
18280;SDS011;9266;51.132;17.062;2022-11-11T12:43:49;14.10;;;6.10;;
18280;SDS011;9266;51.132;17.062;2022-11-11T12:46:20;9.80;;;6.27;;
18280;SDS011;9266;51.132;17.062;2022-11-11T12:48:53;8.93;;;5.90;;
18280;SDS011;9266;51.132;17.062;2022-11-11T12:51:27;10.37;;;5.97;;
18280;SDS011;9266;51.132;17.062;2022-11-11T12:54:00;10.43;;;5.87;;
18280;SDS011;9266;51.132;17.062;2022-11-11T12:56:32;7.70;;;5.93;;
18280;SDS011;9266;51.132;17.062;2022-11-11T12:59:03;8.07;;;5.07;;
18280;SDS011;9266;51.132;17.062;2022-11-11T13:01:36;7.83;;;5.43;;
18280;SDS011;9266;51.132;17.062;2022-11-11T13:04:11;8.30;;;4.90;;
18280;SDS011;9266;51.132;17.062;2022-11-11T13:06:49;7.70;;;5.03;;
18280;SDS011;9266;51.132;17.062;2022-11-11T13:09:25;8.30;;;4.70;;
18280;SDS011;9266;51.132;17.062;2022-11-11T13:11:58;7.37;;;4.30;;
18280;SDS011;9266;51.132;17.062;2022-11-11T13:17:10;6.67;;;4.60;;
18280;SDS011;9266;51.132;17.062;2022-11-11T13:19:38;6.73;;;4.03;;
18280;SDS011;9266;51.132;17.062;2022-11-11T13:22:07;6.13;;;4.70;;
18280;SDS011;9266;51.132;17.062;2022-11-11T13:24:40;7.63;;;4.97;;
18280;SDS011;9266;51.132;17.062;2022-11-11T13:27:13;6.67;;;4.07;;
18280;SDS011;9266;51.132;17.062;2022-11-11T13:29:52;5.73;;;4.50;;
18280;SDS011;9266;51.132;17.062;2022-11-11T13:32:24;6.23;;;4.40;;
18280;SDS011;9266;51.132;17.062;2022-11-11T13:34:53;7.87;;;4.43;;
18280;SDS011;9266;51.132;17.062;2022-11-11T13:37:21;5.80;;;4.53;;
18280;SDS011;9266;51.132;17.062;2022-11-11T13:39:52;7.77;;;4.70;;
18280;SDS011;9266;51.132;17.062;2022-11-11T13:42:23;7.40;;;5.00;;
18280;SDS011;9266;51.132;17.062;2022-11-11T13:44:52;8.03;;;4.80;;
18280;SDS011;9266;51.132;17.062;2022-11-11T13:47:21;10.33;;;5.17;;
18280;SDS011;9266;51.132;17.062;2022-11-11T13:49:53;7.60;;;5.07;;
18280;SDS011;9266;51.132;17.062;2022-11-11T13:52:22;7.30;;;5.00;;
18280;SDS011;9266;51.132;17.062;2022-11-11T13:54:51;7.50;;;4.80;;
18280;SDS011;9266;51.132;17.062;2022-11-11T13:57:21;7.70;;;5.50;;
18280;SDS011;9266;51.132;17.062;2022-11-11T13:59:54;7.73;;;5.77;;
18280;SDS011;9266;51.132;17.062;2022-11-11T14:02:27;10.53;;;6.03;;
18280;SDS011;9266;51.132;17.062;2022-11-11T14:05:13;8.57;;;5.50;;
18280;SDS011;9266;51.132;17.062;2022-11-11T14:07:47;9.13;;;5.20;;
18280;SDS011;9266;51.132;17.062;2022-11-11T14:16:02;9.50;;;6.17;;
18280;SDS011;9266;51.132;17.062;2022-11-11T14:18:32;9.33;;;6.27;;
18280;SDS011;9266;51.132;17.062;2022-11-11T14:21:41;9.43;;;6.27;;
18280;SDS011;9266;51.132;17.062;2022-11-11T14:24:08;8.50;;;6.13;;
18280;SDS011;9266;51.132;17.062;2022-11-11T14:26:36;13.77;;;9.33;;
18280;SDS011;9266;51.132;17.062;2022-11-11T14:29:03;12.53;;;9.10;;
18280;SDS011;9266;51.132;17.062;2022-11-11T14:31:44;12.63;;;8.37;;
18280;SDS011;9266;51.132;17.062;2022-11-11T14:34:16;12.00;;;8.57;;
18280;SDS011;9266;51.132;17.062;2022-11-11T14:36:47;11.47;;;7.70;;
18280;SDS011;9266;51.132;17.062;2022-11-11T14:39:19;10.90;;;7.50;;
18280;SDS011;9266;51.132;17.062;2022-11-11T14:41:50;10.07;;;6.83;;
18280;SDS011;9266;51.132;17.062;2022-11-11T14:44:40;12.67;;;7.60;;
18280;SDS011;9266;51.132;17.062;2022-11-11T14:47:19;9.67;;;7.50;;
18280;SDS011;9266;51.132;17.062;2022-11-11T14:49:50;11.80;;;7.10;;
18280;SDS011;9266;51.132;17.062;2022-11-11T14:52:21;8.53;;;6.93;;
18280;SDS011;9266;51.132;17.062;2022-11-11T14:57:28;14.80;;;8.10;;
18280;SDS011;9266;51.132;17.062;2022-11-11T14:59:55;11.63;;;8.77;;
18280;SDS011;9266;51.132;17.062;2022-11-11T15:02:28;10.07;;;7.63;;